sensor_id;sensor_type;location;lat;lon;timestamp;pressure;altitude;pressure_sealevel;temperature;humidity
76611;BME280;65503;48.534;9.062;2023-05-27T00:00:32;97606.66;;;17.93;43.21
76611;BME280;65503;48.534;9.062;2023-05-27T00:02:59;97598.66;;;17.98;43.00
76611;BME280;65503;48.534;9.062;2023-05-27T00:05:27;97608.47;;;17.87;43.02
76611;BME280;65503;48.534;9.062;2023-05-27T00:07:53;97591.84;;;17.60;43.50
76611;BME280;65503;48.534;9.062;2023-05-27T00:10:20;97600.38;;;17.62;43.79
76611;BME280;65503;48.534;9.062;2023-05-27T00:12:46;97601.75;;;17.69;43.60
76611;BME280;65503;48.534;9.062;2023-05-27T00:15:13;97596.66;;;17.63;43.66
76611;BME280;65503;48.534;9.062;2023-05-27T00:17:40;97594.06;;;17.78;43.44
76611;BME280;65503;48.534;9.062;2023-05-27T00:20:09;97598.84;;;17.76;43.03
76611;BME280;65503;48.534;9.062;2023-05-27T00:22:36;97597.94;;;17.60;43.80
76611;BME280;65503;48.534;9.062;2023-05-27T00:25:03;97601.97;;;17.63;43.68
76611;BME280;65503;48.534;9.062;2023-05-27T00:27:30;97597.19;;;17.65;43.62
76611;BME280;65503;48.534;9.062;2023-05-27T00:29:57;97603.59;;;17.64;43.35
76611;BME280;65503;48.534;9.062;2023-05-27T00:32:23;97606.19;;;17.59;43.44
76611;BME280;65503;48.534;9.062;2023-05-27T00:34:50;97602.50;;;17.60;43.76
76611;BME280;65503;48.534;9.062;2023-05-27T00:37:16;97603.44;;;17.49;44.07
76611;BME280;65503;48.534;9.062;2023-05-27T00:39:43;97600.22;;;17.37;43.72
76611;BME280;65503;48.534;9.062;2023-05-27T00:42:10;97617.16;;;17.25;44.30
76611;BME280;65503;48.534;9.062;2023-05-27T00:44:37;97608.34;;;17.20;44.60
76611;BME280;65503;48.534;9.062;2023-05-27T00:47:04;97610.41;;;17.13;44.89
76611;BME280;65503;48.534;9.062;2023-05-27T00:49:30;97609.13;;;17.20;44.90
76611;BME280;65503;48.534;9.062;2023-05-27T00:51:57;97607.09;;;16.96;45.21
76611;BME280;65503;48.534;9.062;2023-05-27T00:54:24;97610.16;;;17.14;44.97
76611;BME280;65503;48.534;9.062;2023-05-27T00:56:50;97611.63;;;16.95;45.36
76611;BME280;65503;48.534;9.062;2023-05-27T00:59:17;97609.75;;;16.96;45.08
76611;BME280;65503;48.534;9.062;2023-05-27T01:01:44;97605.69;;;16.88;45.52
76611;BME280;65503;48.534;9.062;2023-05-27T01:04:10;97596.66;;;16.89;45.35
76611;BME280;65503;48.534;9.062;2023-05-27T01:07:29;97600.41;;;16.93;45.46
76611;BME280;65503;48.534;9.062;2023-05-27T01:09:52;97588.06;;;16.77;45.85
76611;BME280;65503;48.534;9.062;2023-05-27T01:15:09;97597.09;;;16.76;45.74
76611;BME280;65503;48.534;9.062;2023-05-27T01:17:37;97584.56;;;16.71;45.85
76611;BME280;65503;48.534;9.062;2023-05-27T01:20:09;97583.56;;;16.77;45.75
76611;BME280;65503;48.534;9.062;2023-05-27T01:22:37;97581.66;;;16.73;46.08
76611;BME280;65503;48.534;9.062;2023-05-27T01:25:08;97581.44;;;16.52;46.09
76611;BME280;65503;48.534;9.062;2023-05-27T01:27:36;97578.34;;;16.61;46.26
76611;BME280;65503;48.534;9.062;2023-05-27T01:30:07;97574.03;;;16.54;46.32
76611;BME280;65503;48.534;9.062;2023-05-27T01:32:43;97570.31;;;16.56;46.33
76611;BME280;65503;48.534;9.062;2023-05-27T01:35:24;97577.13;;;16.46;46.60
76611;BME280;65503;48.534;9.062;2023-05-27T01:37:56;97577.78;;;16.32;47.13
76611;BME280;65503;48.534;9.062;2023-05-27T01:40:24;97568.91;;;16.48;46.89
76611;BME280;65503;48.534;9.062;2023-05-27T01:42:52;97566.41;;;16.36;47.01
76611;BME280;65503;48.534;9.062;2023-05-27T01:45:19;97565.38;;;16.37;47.17
76611;BME280;65503;48.534;9.062;2023-05-27T01:47:45;97571.19;;;16.34;47.51
76611;BME280;65503;48.534;9.062;2023-05-27T01:50:12;97557.78;;;16.24;47.79
76611;BME280;65503;48.534;9.062;2023-05-27T01:52:39;97564.22;;;16.28;47.57
76611;BME280;65503;48.534;9.062;2023-05-27T01:55:06;97554.09;;;16.25;47.84
76611;BME280;65503;48.534;9.062;2023-05-27T01:57:33;97550.38;;;16.26;47.44
76611;BME280;65503;48.534;9.062;2023-05-27T02:00:00;97552.00;;;16.27;47.74
76611;BME280;65503;48.534;9.062;2023-05-27T02:02:26;97559.41;;;16.25;48.01
76611;BME280;65503;48.534;9.062;2023-05-27T02:04:53;97554.59;;;16.22;47.82
76611;BME280;65503;48.534;9.062;2023-05-27T02:07:20;97552.44;;;16.19;47.77
76611;BME280;65503;48.534;9.062;2023-05-27T02:09:47;97550.81;;;16.18;47.99
76611;BME280;65503;48.534;9.062;2023-05-27T02:12:14;97556.69;;;16.20;47.83
76611;BME280;65503;48.534;9.062;2023-05-27T02:14:41;97550.28;;;16.16;47.93
76611;BME280;65503;48.534;9.062;2023-05-27T02:17:07;97559.78;;;16.12;48.62
76611;BME280;65503;48.534;9.062;2023-05-27T02:19:34;97556.28;;;16.06;48.54
76611;BME280;65503;48.534;9.062;2023-05-27T02:22:01;97551.19;;;16.00;48.30
76611;BME280;65503;48.534;9.062;2023-05-27T02:24:28;97550.06;;;15.96;48.52
76611;BME280;65503;48.534;9.062;2023-05-27T02:26:54;97552.66;;;15.91;48.58
76611;BME280;65503;48.534;9.062;2023-05-27T02:29:21;97555.38;;;15.96;48.77
76611;BME280;65503;48.534;9.062;2023-05-27T02:31:47;97547.53;;;15.84;48.89
76611;BME280;65503;48.534;9.062;2023-05-27T02:34:14;97555.78;;;15.83;48.91
76611;BME280;65503;48.534;9.062;2023-05-27T02:36:41;97547.25;;;15.81;49.24
76611;BME280;65503;48.534;9.062;2023-05-27T02:39:07;97549.84;;;15.76;49.54
76611;BME280;65503;48.534;9.062;2023-05-27T02:41:34;97544.72;;;15.69;49.59
76611;BME280;65503;48.534;9.062;2023-05-27T02:44:01;97544.38;;;15.60;49.57
76611;BME280;65503;48.534;9.062;2023-05-27T02:46:28;97549.66;;;15.60;49.76
76611;BME280;65503;48.534;9.062;2023-05-27T02:48:55;97551.81;;;15.63;49.68
76611;BME280;65503;48.534;9.062;2023-05-27T02:51:21;97551.69;;;15.53;50.06
76611;BME280;65503;48.534;9.062;2023-05-27T02:53:49;97554.88;;;15.55;49.74
76611;BME280;65503;48.534;9.062;2023-05-27T02:56:17;97552.66;;;15.47;50.04
76611;BME280;65503;48.534;9.062;2023-05-27T02:58:43;97550.97;;;15.41;50.54
76611;BME280;65503;48.534;9.062;2023-05-27T03:01:10;97549.94;;;15.42;50.55
76611;BME280;65503;48.534;9.062;2023-05-27T03:03:36;97552.53;;;15.37;50.84
76611;BME280;65503;48.534;9.062;2023-05-27T03:06:03;97545.84;;;15.35;50.92
76611;BME280;65503;48.534;9.062;2023-05-27T03:08:30;97544.91;;;15.24;51.24
76611;BME280;65503;48.534;9.062;2023-05-27T03:10:57;97552.06;;;15.23;51.43
76611;BME280;65503;48.534;9.062;2023-05-27T03:13:24;97550.16;;;15.19;51.42
76611;BME280;65503;48.534;9.062;2023-05-27T03:15:53;97552.09;;;15.07;52.27
76611;BME280;65503;48.534;9.062;2023-05-27T03:18:24;97545.19;;;15.06;51.72
76611;BME280;65503;48.534;9.062;2023-05-27T03:20:51;97555.41;;;14.97;53.15
76611;BME280;65503;48.534;9.062;2023-05-27T03:23:17;97551.63;;;14.93;52.66
76611;BME280;65503;48.534;9.062;2023-05-27T03:25:44;97556.03;;;14.87;53.21
76611;BME280;65503;48.534;9.062;2023-05-27T03:28:11;97555.16;;;14.82;52.96
76611;BME280;65503;48.534;9.062;2023-05-27T03:30:37;97550.88;;;14.81;53.27
76611;BME280;65503;48.534;9.062;2023-05-27T03:33:04;97556.47;;;14.79;53.53
76611;BME280;65503;48.534;9.062;2023-05-27T03:35:31;97556.47;;;14.79;53.34
76611;BME280;65503;48.534;9.062;2023-05-27T03:37:57;97560.63;;;14.75;54.25
76611;BME280;65503;48.534;9.062;2023-05-27T03:40:24;97554.19;;;14.71;53.88
76611;BME280;65503;48.534;9.062;2023-05-27T03:42:50;97549.84;;;14.65;54.14
76611;BME280;65503;48.534;9.062;2023-05-27T03:45:17;97550.34;;;14.62;54.83
76611;BME280;65503;48.534;9.062;2023-05-27T03:47:43;97554.03;;;14.61;54.52
76611;BME280;65503;48.534;9.062;2023-05-27T03:50:10;97553.22;;;14.61;54.49
76611;BME280;65503;48.534;9.062;2023-05-27T03:52:36;97552.44;;;14.60;54.84
76611;BME280;65503;48.534;9.062;2023-05-27T03:55:03;97559.81;;;14.58;55.04
76611;BME280;65503;48.534;9.062;2023-05-27T03:57:30;97558.22;;;14.57;54.80
76611;BME280;65503;48.534;9.062;2023-05-27T03:59:56;97557.66;;;14.55;55.04
76611;BME280;65503;48.534;9.062;2023-05-27T04:02:23;97560.28;;;14.55;55.10
76611;BME280;65503;48.534;9.062;2023-05-27T04:04:49;97559.19;;;14.51;55.66
76611;BME280;65503;48.534;9.062;2023-05-27T04:07:17;97552.94;;;14.57;55.70
76611;BME280;65503;48.534;9.062;2023-05-27T04:09:44;97557.25;;;14.63;56.00
76611;BME280;65503;48.534;9.062;2023-05-27T04:12:11;97554.84;;;14.62;56.05
76611;BME280;65503;48.534;9.062;2023-05-27T04:14:37;97555.22;;;14.70;56.52
76611;BME280;65503;48.534;9.062;2023-05-27T04:17:04;97560.38;;;14.77;56.09
76611;BME280;65503;48.534;9.062;2023-05-27T04:19:30;97561.75;;;14.79;56.15
76611;BME280;65503;48.534;9.062;2023-05-27T04:21:59;97567.06;;;14.79;56.73
76611;BME280;65503;48.534;9.062;2023-05-27T04:24:26;97562.38;;;14.86;57.14
76611;BME280;65503;48.534;9.062;2023-05-27T04:26:53;97566.09;;;14.85;57.46
76611;BME280;65503;48.534;9.062;2023-05-27T04:29:19;97564.47;;;14.84;57.82
76611;BME280;65503;48.534;9.062;2023-05-27T04:31:46;97567.22;;;14.89;57.74
76611;BME280;65503;48.534;9.062;2023-05-27T04:34:13;97562.56;;;14.97;58.09
76611;BME280;65503;48.534;9.062;2023-05-27T04:36:39;97568.56;;;15.09;57.80
76611;BME280;65503;48.534;9.062;2023-05-27T04:39:06;97572.00;;;15.26;57.75
76611;BME280;65503;48.534;9.062;2023-05-27T04:41:34;97568.78;;;15.62;57.09
76611;BME280;65503;48.534;9.062;2023-05-27T04:44:00;97564.09;;;16.18;55.98
76611;BME280;65503;48.534;9.062;2023-05-27T04:46:29;97562.56;;;16.81;54.45
76611;BME280;65503;48.534;9.062;2023-05-27T04:48:56;97557.09;;;17.40;52.49
76611;BME280;65503;48.534;9.062;2023-05-27T04:51:23;97560.00;;;17.85;51.14
76611;BME280;65503;48.534;9.062;2023-05-27T04:53:49;97573.19;;;18.32;50.12
76611;BME280;65503;48.534;9.062;2023-05-27T04:56:16;97567.13;;;18.67;48.40
76611;BME280;65503;48.534;9.062;2023-05-27T04:58:44;97568.19;;;19.02;47.79
76611;BME280;65503;48.534;9.062;2023-05-27T05:01:13;97571.06;;;19.25;47.05
76611;BME280;65503;48.534;9.062;2023-05-27T05:03:47;97571.28;;;19.69;46.14
76611;BME280;65503;48.534;9.062;2023-05-27T05:06:20;97573.22;;;20.08;45.32
76611;BME280;65503;48.534;9.062;2023-05-27T05:08:48;97570.97;;;20.30;44.61
76611;BME280;65503;48.534;9.062;2023-05-27T05:11:15;97569.31;;;20.39;44.09
76611;BME280;65503;48.534;9.062;2023-05-27T05:13:41;97569.28;;;20.49;43.68
76611;BME280;65503;48.534;9.062;2023-05-27T05:16:08;97567.53;;;20.69;43.32
76611;BME280;65503;48.534;9.062;2023-05-27T05:18:35;97574.38;;;20.80;42.06
76611;BME280;65503;48.534;9.062;2023-05-27T05:21:01;97565.44;;;20.94;42.81
76611;BME280;65503;48.534;9.062;2023-05-27T05:23:28;97561.75;;;21.19;42.70
76611;BME280;65503;48.534;9.062;2023-05-27T05:25:55;97566.44;;;21.32;41.48
76611;BME280;65503;48.534;9.062;2023-05-27T05:28:24;97570.84;;;21.23;42.06
76611;BME280;65503;48.534;9.062;2023-05-27T05:30:51;97568.56;;;21.35;42.08
76611;BME280;65503;48.534;9.062;2023-05-27T05:33:18;97570.44;;;21.59;41.65
76611;BME280;65503;48.534;9.062;2023-05-27T05:35:48;97574.78;;;22.02;40.75
76611;BME280;65503;48.534;9.062;2023-05-27T05:38:14;97566.63;;;22.31;39.56
76611;BME280;65503;48.534;9.062;2023-05-27T05:40:41;97574.44;;;22.65;39.03
76611;BME280;65503;48.534;9.062;2023-05-27T05:43:07;97574.66;;;22.87;38.19
76611;BME280;65503;48.534;9.062;2023-05-27T05:45:34;97571.69;;;23.02;38.33
76611;BME280;65503;48.534;9.062;2023-05-27T05:48:00;97571.94;;;23.20;38.25
76611;BME280;65503;48.534;9.062;2023-05-27T05:50:27;97575.13;;;23.22;37.03
76611;BME280;65503;48.534;9.062;2023-05-27T05:52:54;97576.88;;;23.45;36.89
76611;BME280;65503;48.534;9.062;2023-05-27T05:55:20;97575.00;;;23.73;36.11
76611;BME280;65503;48.534;9.062;2023-05-27T05:57:47;97561.25;;;24.02;35.84
76611;BME280;65503;48.534;9.062;2023-05-27T06:00:14;97568.31;;;24.25;35.92
76611;BME280;65503;48.534;9.062;2023-05-27T06:02:41;97576.63;;;23.74;34.84
76611;BME280;65503;48.534;9.062;2023-05-27T06:05:08;97573.72;;;23.98;34.95
76611;BME280;65503;48.534;9.062;2023-05-27T06:07:34;97573.59;;;23.75;34.80
76611;BME280;65503;48.534;9.062;2023-05-27T06:10:01;97576.19;;;23.94;35.94
76611;BME280;65503;48.534;9.062;2023-05-27T06:12:27;97572.81;;;24.02;35.77
76611;BME280;65503;48.534;9.062;2023-05-27T06:14:54;97567.16;;;24.40;34.65
76611;BME280;65503;48.534;9.062;2023-05-27T06:17:20;97563.69;;;24.61;34.01
76611;BME280;65503;48.534;9.062;2023-05-27T06:19:47;97569.84;;;24.76;34.32
76611;BME280;65503;48.534;9.062;2023-05-27T06:22:13;97568.22;;;24.88;33.36
76611;BME280;65503;48.534;9.062;2023-05-27T06:24:41;97570.06;;;25.41;32.42
76611;BME280;65503;48.534;9.062;2023-05-27T06:27:07;97568.13;;;25.64;32.29
76611;BME280;65503;48.534;9.062;2023-05-27T06:29:34;97562.53;;;25.91;31.68
76611;BME280;65503;48.534;9.062;2023-05-27T06:32:01;97562.53;;;25.91;31.83
76611;BME280;65503;48.534;9.062;2023-05-27T06:34:27;97569.53;;;26.09;31.58
76611;BME280;65503;48.534;9.062;2023-05-27T06:36:54;97566.56;;;26.19;31.51
76611;BME280;65503;48.534;9.062;2023-05-27T06:39:20;97566.72;;;26.14;30.98
76611;BME280;65503;48.534;9.062;2023-05-27T06:41:48;97562.78;;;26.46;29.57
76611;BME280;65503;48.534;9.062;2023-05-27T06:44:15;97568.66;;;26.40;30.63
76611;BME280;65503;48.534;9.062;2023-05-27T06:46:41;97573.72;;;26.32;30.08
76611;BME280;65503;48.534;9.062;2023-05-27T06:49:08;97574.53;;;26.33;30.85
76611;BME280;65503;48.534;9.062;2023-05-27T06:51:35;97575.31;;;26.33;31.24
76611;BME280;65503;48.534;9.062;2023-05-27T06:54:02;97566.50;;;25.93;31.14
76611;BME280;65503;48.534;9.062;2023-05-27T06:56:28;97557.47;;;26.15;31.43
76611;BME280;65503;48.534;9.062;2023-05-27T06:58:55;97565.16;;;26.30;30.15
76611;BME280;65503;48.534;9.062;2023-05-27T07:01:22;97556.91;;;26.70;30.12
76611;BME280;65503;48.534;9.062;2023-05-27T07:03:48;97561.97;;;26.28;29.49
76611;BME280;65503;48.534;9.062;2023-05-27T07:06:15;97562.13;;;25.05;31.25
76611;BME280;65503;48.534;9.062;2023-05-27T07:08:42;97562.31;;;25.39;30.87
76611;BME280;65503;48.534;9.062;2023-05-27T07:11:09;97562.47;;;24.67;32.88
76611;BME280;65503;48.534;9.062;2023-05-27T07:13:35;97554.91;;;24.92;31.90
76611;BME280;65503;48.534;9.062;2023-05-27T07:16:02;97565.97;;;25.43;31.52
76611;BME280;65503;48.534;9.062;2023-05-27T07:18:28;97566.50;;;25.93;30.34
76611;BME280;65503;48.534;9.062;2023-05-27T07:20:55;97574.31;;;25.64;30.81
76611;BME280;65503;48.534;9.062;2023-05-27T07:23:22;97573.31;;;25.91;30.94
76611;BME280;65503;48.534;9.062;2023-05-27T07:25:49;97563.28;;;25.83;31.15
76611;BME280;65503;48.534;9.062;2023-05-27T07:28:16;97562.13;;;25.36;31.46
76611;BME280;65503;48.534;9.062;2023-05-27T07:30:43;97565.50;;;25.10;31.18
76611;BME280;65503;48.534;9.062;2023-05-27T07:33:10;97564.78;;;25.27;31.85
76611;BME280;65503;48.534;9.062;2023-05-27T07:35:36;97564.97;;;25.62;31.20
76611;BME280;65503;48.534;9.062;2023-05-27T07:38:03;97551.09;;;25.15;31.70
76611;BME280;65503;48.534;9.062;2023-05-27T07:40:29;97552.59;;;25.61;31.95
76611;BME280;65503;48.534;9.062;2023-05-27T07:42:56;97555.69;;;25.45;32.22
76611;BME280;65503;48.534;9.062;2023-05-27T07:45:22;97562.50;;;25.74;31.73
76611;BME280;65503;48.534;9.062;2023-05-27T07:47:49;97553.50;;;25.96;30.49
76611;BME280;65503;48.534;9.062;2023-05-27T07:50:16;97549.75;;;25.66;31.64
76611;BME280;65503;48.534;9.062;2023-05-27T07:52:42;97555.94;;;25.35;32.07
76611;BME280;65503;48.534;9.062;2023-05-27T07:55:09;97552.94;;;25.68;31.75
76611;BME280;65503;48.534;9.062;2023-05-27T07:57:35;97545.28;;;25.22;32.01
76611;BME280;65503;48.534;9.062;2023-05-27T08:00:05;97544.28;;;25.48;32.97
76611;BME280;65503;48.534;9.062;2023-05-27T08:02:32;97545.97;;;25.05;32.41
76611;BME280;65503;48.534;9.062;2023-05-27T08:04:59;97540.59;;;25.05;33.14
76611;BME280;65503;48.534;9.062;2023-05-27T08:07:25;97538.72;;;25.14;32.68
76611;BME280;65503;48.534;9.062;2023-05-27T08:09:52;97540.09;;;25.03;32.35
76611;BME280;65503;48.534;9.062;2023-05-27T08:12:18;97537.41;;;25.03;32.79
76611;BME280;65503;48.534;9.062;2023-05-27T08:14:45;97537.91;;;24.83;33.31
76611;BME280;65503;48.534;9.062;2023-05-27T08:17:12;97534.22;;;24.56;32.95
76611;BME280;65503;48.534;9.062;2023-05-27T08:19:38;97529.31;;;24.81;34.05
76611;BME280;65503;48.534;9.062;2023-05-27T08:22:04;97534.59;;;25.47;33.00
76611;BME280;65503;48.534;9.062;2023-05-27T08:24:34;97534.50;;;25.22;31.88
76611;BME280;65503;48.534;9.062;2023-05-27T08:27:01;97523.44;;;25.63;32.36
76611;BME280;65503;48.534;9.062;2023-05-27T08:29:29;97519.38;;;24.23;34.20
76611;BME280;65503;48.534;9.062;2023-05-27T08:31:56;97522.84;;;24.59;34.67
76611;BME280;65503;48.534;9.062;2023-05-27T08:34:23;97511.19;;;24.73;33.52
76611;BME280;65503;48.534;9.062;2023-05-27T08:36:50;97507.50;;;25.13;33.66
76611;BME280;65503;48.534;9.062;2023-05-27T08:39:16;97513.78;;;25.00;33.09
76611;BME280;65503;48.534;9.062;2023-05-27T08:41:43;97507.25;;;25.63;33.40
76611;BME280;65503;48.534;9.062;2023-05-27T08:44:10;97507.56;;;25.70;33.28
76611;BME280;65503;48.534;9.062;2023-05-27T08:46:48;97499.75;;;25.12;32.68
76611;BME280;65503;48.534;9.062;2023-05-27T08:49:18;97513.66;;;25.05;33.31
76611;BME280;65503;48.534;9.062;2023-05-27T08:51:45;97501.66;;;24.66;34.74
76611;BME280;65503;48.534;9.062;2023-05-27T08:54:12;97496.94;;;24.72;34.67
76611;BME280;65503;48.534;9.062;2023-05-27T08:56:39;97496.38;;;25.45;34.43
76611;BME280;65503;48.534;9.062;2023-05-27T08:59:07;97498.44;;;26.05;32.40
76611;BME280;65503;48.534;9.062;2023-05-27T09:01:34;97495.88;;;26.00;32.34
76611;BME280;65503;48.534;9.062;2023-05-27T09:04:02;97496.66;;;25.83;32.91
76611;BME280;65503;48.534;9.062;2023-05-27T09:06:29;97497.28;;;25.72;33.62
76611;BME280;65503;48.534;9.062;2023-05-27T09:08:55;97495.50;;;25.59;33.15
76611;BME280;65503;48.534;9.062;2023-05-27T09:11:23;97492.53;;;25.77;31.95
76611;BME280;65503;48.534;9.062;2023-05-27T09:13:53;97500.94;;;25.93;32.76
76611;BME280;65503;48.534;9.062;2023-05-27T09:16:21;97494.72;;;25.27;32.59
76611;BME280;65503;48.534;9.062;2023-05-27T09:18:48;97490.66;;;24.32;34.61
76611;BME280;65503;48.534;9.062;2023-05-27T09:21:15;97490.53;;;24.82;34.47
76611;BME280;65503;48.534;9.062;2023-05-27T09:23:42;97482.34;;;24.64;35.06
76611;BME280;65503;48.534;9.062;2023-05-27T09:26:09;97491.66;;;24.36;34.43
76611;BME280;65503;48.534;9.062;2023-05-27T09:28:37;97479.47;;;24.39;35.47
76611;BME280;65503;48.534;9.062;2023-05-27T09:31:05;97474.72;;;24.66;34.18
76611;BME280;65503;48.534;9.062;2023-05-27T09:33:38;97474.72;;;24.66;34.03
76611;BME280;65503;48.534;9.062;2023-05-27T09:36:06;97476.75;;;24.61;33.98
76611;BME280;65503;48.534;9.062;2023-05-27T09:38:35;97475.22;;;24.91;34.55
76611;BME280;65503;48.534;9.062;2023-05-27T09:41:02;97474.69;;;25.11;34.18
76611;BME280;65503;48.534;9.062;2023-05-27T09:43:30;97472.31;;;25.58;33.40
76611;BME280;65503;48.534;9.062;2023-05-27T09:46:01;97462.84;;;25.86;32.10
76611;BME280;65503;48.534;9.062;2023-05-27T09:48:30;97470.94;;;25.77;32.91
76611;BME280;65503;48.534;9.062;2023-05-27T09:50:59;97463.72;;;24.77;34.60
76611;BME280;65503;48.534;9.062;2023-05-27T09:53:27;97463.81;;;25.73;34.49
76611;BME280;65503;48.534;9.062;2023-05-27T09:55:55;97457.63;;;25.24;33.50
76611;BME280;65503;48.534;9.062;2023-05-27T09:58:23;97461.66;;;25.44;33.77
76611;BME280;65503;48.534;9.062;2023-05-27T10:00:51;97475.06;;;25.75;32.70
76611;BME280;65503;48.534;9.062;2023-05-27T10:03:21;97469.69;;;25.83;32.75
76611;BME280;65503;48.534;9.062;2023-05-27T10:05:50;97451.00;;;25.96;33.31
76611;BME280;65503;48.534;9.062;2023-05-27T10:08:18;97454.59;;;25.57;32.68
76611;BME280;65503;48.534;9.062;2023-05-27T10:11:05;97457.41;;;25.51;33.30
76611;BME280;65503;48.534;9.062;2023-05-27T10:13:31;97449.19;;;25.57;33.16
76611;BME280;65503;48.534;9.062;2023-05-27T10:15:58;97452.56;;;25.31;34.43
76611;BME280;65503;48.534;9.062;2023-05-27T10:18:26;97447.97;;;25.80;32.57
76611;BME280;65503;48.534;9.062;2023-05-27T10:20:59;97454.38;;;25.05;34.20
76611;BME280;65503;48.534;9.062;2023-05-27T10:23:28;97447.00;;;25.76;33.75
76611;BME280;65503;48.534;9.062;2023-05-27T10:26:01;97455.75;;;25.33;33.45
76611;BME280;65503;48.534;9.062;2023-05-27T10:28:33;97451.09;;;25.65;33.29
76611;BME280;65503;48.534;9.062;2023-05-27T10:31:09;97438.22;;;25.05;34.01
76611;BME280;65503;48.534;9.062;2023-05-27T10:33:37;97442.47;;;25.45;33.68
76611;BME280;65503;48.534;9.062;2023-05-27T10:36:07;97430.97;;;25.62;32.59
76611;BME280;65503;48.534;9.062;2023-05-27T10:38:35;97429.19;;;25.58;32.59
76611;BME280;65503;48.534;9.062;2023-05-27T10:41:04;97419.88;;;25.89;33.32
76611;BME280;65503;48.534;9.062;2023-05-27T10:43:32;97415.13;;;25.78;32.47
76611;BME280;65503;48.534;9.062;2023-05-27T10:48:28;97422.19;;;25.39;33.35
76611;BME280;65503;48.534;9.062;2023-05-27T10:50:57;97432.06;;;25.70;31.82
76611;BME280;65503;48.534;9.062;2023-05-27T10:53:27;97422.34;;;25.51;33.28
76611;BME280;65503;48.534;9.062;2023-05-27T10:55:57;97409.34;;;24.97;33.07
76611;BME280;65503;48.534;9.062;2023-05-27T10:58:24;97427.78;;;25.12;33.57
76611;BME280;65503;48.534;9.062;2023-05-27T11:00:53;97425.41;;;25.93;32.30
76611;BME280;65503;48.534;9.062;2023-05-27T11:03:24;97431.84;;;25.49;32.84
76611;BME280;65503;48.534;9.062;2023-05-27T11:06:05;97422.72;;;25.19;33.76
76611;BME280;65503;48.534;9.062;2023-05-27T11:08:33;97407.84;;;25.22;33.08
76611;BME280;65503;48.534;9.062;2023-05-27T11:11:04;97415.09;;;25.61;32.13
76611;BME280;65503;48.534;9.062;2023-05-27T11:13:42;97411.19;;;25.27;32.90
76611;BME280;65503;48.534;9.062;2023-05-27T11:16:14;97415.59;;;25.15;32.26
76611;BME280;65503;48.534;9.062;2023-05-27T11:21:08;97409.84;;;25.56;32.91
76611;BME280;65503;48.534;9.062;2023-05-27T11:23:46;97402.31;;;25.35;33.21
76611;BME280;65503;48.534;9.062;2023-05-27T11:26:19;97409.13;;;25.24;32.76
76611;BME280;65503;48.534;9.062;2023-05-27T11:31:19;97399.41;;;25.97;31.25
76611;BME280;65503;48.534;9.062;2023-05-27T11:33:49;97398.63;;;25.97;32.30
76611;BME280;65503;48.534;9.062;2023-05-27T11:36:18;97388.44;;;26.19;30.91
76611;BME280;65503;48.534;9.062;2023-05-27T11:38:57;97394.16;;;26.35;31.76
76611;BME280;65503;48.534;9.062;2023-05-27T11:41:27;97394.16;;;26.35;31.16
76611;BME280;65503;48.534;9.062;2023-05-27T11:44:03;97399.34;;;26.49;30.65
76611;BME280;65503;48.534;9.062;2023-05-27T11:46:41;97378.09;;;26.21;31.32
76611;BME280;65503;48.534;9.062;2023-05-27T11:49:09;97383.81;;;26.46;31.43
76611;BME280;65503;48.534;9.062;2023-05-27T11:51:38;97371.47;;;26.10;31.00
76611;BME280;65503;48.534;9.062;2023-05-27T11:54:06;97363.56;;;25.71;31.75
76611;BME280;65503;48.534;9.062;2023-05-27T11:56:33;97360.22;;;25.57;33.24
76611;BME280;65503;48.534;9.062;2023-05-27T11:59:00;97359.06;;;26.09;31.38
76611;BME280;65503;48.534;9.062;2023-05-27T12:01:26;97365.88;;;26.32;31.02
76611;BME280;65503;48.534;9.062;2023-05-27T12:03:53;97344.47;;;25.41;31.82
76611;BME280;65503;48.534;9.062;2023-05-27T12:06:20;97350.69;;;25.93;32.44
76611;BME280;65503;48.534;9.062;2023-05-27T12:08:47;97348.59;;;25.30;32.70
76611;BME280;65503;48.534;9.062;2023-05-27T12:11:13;97345.50;;;25.80;31.80
76611;BME280;65503;48.534;9.062;2023-05-27T12:13:40;97336.25;;;25.81;32.42
76611;BME280;65503;48.534;9.062;2023-05-27T12:16:07;97351.00;;;26.01;31.03
76611;BME280;65503;48.534;9.062;2023-05-27T12:18:33;97347.69;;;25.78;31.86
76611;BME280;65503;48.534;9.062;2023-05-27T12:21:00;97330.72;;;25.51;31.85
76611;BME280;65503;48.534;9.062;2023-05-27T12:23:27;97328.59;;;26.35;31.14
76611;BME280;65503;48.534;9.062;2023-05-27T12:25:53;97329.28;;;25.97;29.70
76611;BME280;65503;48.534;9.062;2023-05-27T12:28:21;97330.81;;;26.15;30.44
76611;BME280;65503;48.534;9.062;2023-05-27T12:30:48;97329.06;;;26.37;30.21
76611;BME280;65503;48.534;9.062;2023-05-27T12:33:14;97308.06;;;26.80;29.93
76611;BME280;65503;48.534;9.062;2023-05-27T12:35:41;97321.25;;;26.82;30.03
76611;BME280;65503;48.534;9.062;2023-05-27T12:38:07;97325.28;;;26.67;30.37
76611;BME280;65503;48.534;9.062;2023-05-27T12:40:34;97322.47;;;26.55;29.18
76611;BME280;65503;48.534;9.062;2023-05-27T12:43:01;97325.78;;;26.60;30.10
76611;BME280;65503;48.534;9.062;2023-05-27T12:45:32;97310.28;;;26.78;30.15
76611;BME280;65503;48.534;9.062;2023-05-27T12:47:58;97307.06;;;26.93;29.98
76611;BME280;65503;48.534;9.062;2023-05-27T12:50:26;97302.38;;;26.73;29.23
76611;BME280;65503;48.534;9.062;2023-05-27T12:52:52;97303.91;;;26.91;29.31
76611;BME280;65503;48.534;9.062;2023-05-27T12:55:19;97302.88;;;26.66;28.79
76611;BME280;65503;48.534;9.062;2023-05-27T12:57:49;97300.94;;;26.38;29.35
76611;BME280;65503;48.534;9.062;2023-05-27T13:00:17;97304.72;;;26.54;29.21
76611;BME280;65503;48.534;9.062;2023-05-27T13:02:45;97298.41;;;26.41;28.60
76611;BME280;65503;48.534;9.062;2023-05-27T13:05:14;97302.25;;;26.23;28.87
76611;BME280;65503;48.534;9.062;2023-05-27T13:07:53;97298.75;;;26.22;29.25
76611;BME280;65503;48.534;9.062;2023-05-27T13:10:20;97289.28;;;26.08;28.69
76611;BME280;65503;48.534;9.062;2023-05-27T13:12:51;97290.25;;;25.86;29.30